Time;durP1;ratioP1;P1;durP2;ratioP2;P2;SDS_P1;SDS_P2;PMS_P1;PMS_P2;Temp;Humidity;BMP_temperature;BMP_pressure;BME280_temperature;BME280_humidity;BME280_pressure;Samples;Min_cycle;Max_cycle;Signal;HPM_P1;HPM_P2
2022/05/08 00:01:58;;;;;;;;;25.75;24.25;;;;;16.28;64.27;102145.56;5031567;28;45314;-70
2022/05/08 00:04:23;;;;;;;;;23.25;23.25;;;;;16.17;64.84;102138.38;5038208;28;45518;-70
2022/05/08 00:06:49;;;;;;;;;22.00;20.67;;;;;16.13;65.21;102147.94;5038552;28;45401;-70
2022/05/08 00:09:14;;;;;;;;;23.25;18.50;;;;;16.12;65.77;102156.31;5040137;28;45349;-70
2022/05/08 00:11:39;;;;;;;;;25.25;22.00;;;;;16.19;65.29;102146.47;5035169;28;45348;-70
2022/05/08 00:14:05;;;;;;;;;20.50;19.00;;;;;16.14;65.53;102141.44;5023500;28;45564;-70
2022/05/08 00:16:32;;;;;;;;;19.50;19.50;;;;;16.00;65.73;102130.94;5013288;28;46965;-69
2022/05/08 00:18:57;;;;;;;;;16.75;16.75;;;;;15.99;65.68;102140.22;5022809;28;45377;-71
2022/05/08 00:21:22;;;;;;;;;27.25;22.75;;;;;16.07;65.48;102147.69;5033575;28;45434;-68
2022/05/08 00:23:48;;;;;;;;;22.67;22.33;;;;;16.08;65.44;102150.25;5024138;28;45663;-69
2022/05/08 00:26:13;;;;;;;;;22.33;19.00;;;;;16.09;65.03;102141.03;5029342;28;45564;-70
2022/05/08 00:28:38;;;;;;;;;22.75;21.00;;;;;16.08;65.30;102138.41;5042213;28;45239;-70
2022/05/08 00:31:08;;;;;;;;;20.33;17.00;;;;;15.96;65.69;102135.00;5015833;28;45447;-70
2022/05/08 00:33:33;;;;;;;;;18.33;18.33;;;;;15.88;66.20;102143.13;5035333;28;45613;-71
2022/05/08 00:35:59;;;;;;;;;20.00;19.00;;;;;15.88;65.65;102148.59;5030007;28;46546;-70
2022/05/08 00:38:24;;;;;;;;;20.00;20.00;;;;;15.86;66.00;102148.75;5034868;28;45389;-70
2022/05/08 00:40:49;;;;;;;;;22.67;19.33;;;;;15.84;65.74;102148.06;5010735;28;45392;-70
2022/05/08 00:43:34;;;;;;;;;19.00;16.33;;;;;15.95;65.79;102145.13;5034485;28;45485;-72
2022/05/08 00:46:04;;;;;;;;;28.33;23.67;;;;;15.89;65.30;102155.81;5029143;28;45364;-68
2022/05/08 00:48:30;;;;;;;;;23.67;20.00;;;;;15.97;65.53;102158.69;5031263;28;45387;-68
2022/05/08 00:50:56;;;;;;;;;24.00;23.00;;;;;15.96;64.89;102144.09;5027888;28;45323;-69
2022/05/08 00:53:24;;;;;;;;;22.67;21.00;;;;;15.93;65.05;102149.88;5030390;28;45410;-69
2022/05/08 00:55:49;;;;;;;;;23.67;22.67;;;;;15.85;65.05;102144.28;5007382;28;48107;-70
2022/05/08 00:58:15;;;;;;;;;27.00;21.67;;;;;15.66;65.80;102147.06;5010366;28;45333;-70
2022/05/08 01:00:41;;;;;;;;;23.33;22.33;;;;;15.49;65.92;102134.09;5028301;28;45596;-70
2022/05/08 01:03:06;;;;;;;;;22.33;21.00;;;;;15.55;66.18;102147.25;5017786;28;45504;-70
2022/05/08 01:05:32;;;;;;;;;23.33;20.33;;;;;15.58;66.02;102142.31;5013409;28;47165;-70
2022/05/08 01:07:57;;;;;;;;;18.33;17.67;;;;;15.56;66.16;102155.28;5030371;28;45153;-70
2022/05/08 01:10:22;;;;;;;;;31.33;26.00;;;;;15.50;66.16;102155.84;5027405;28;45504;-70
2022/05/08 01:12:48;;;;;;;;;25.67;22.00;;;;;15.46;66.34;102157.16;5035060;28;45252;-69
2022/05/08 01:15:14;;;;;;;;;23.00;21.00;;;;;15.55;66.20;102155.47;5028279;28;45360;-70
2022/05/08 01:17:39;;;;;;;;;27.50;24.00;;;;;15.49;65.89;102158.72;5034920;28;45474;-70
2022/05/08 01:20:06;;;;;;;;;23.25;19.25;;;;;15.43;66.44;102162.94;5008673;28;45498;-70
2022/05/08 01:22:32;;;;;;;;;18.00;17.00;;;;;15.42;66.56;102147.50;5024591;28;45510;-70
2022/05/08 01:25:00;;;;;;;;;20.67;18.00;;;;;15.47;66.40;102150.69;5042952;28;46552;-69
2022/05/08 01:27:25;;;;;;;;;24.50;20.25;;;;;15.41;66.30;102143.06;5016470;28;45507;-69
2022/05/08 01:29:50;;;;;;;;;26.25;22.00;;;;;15.43;66.28;102141.03;5027296;28;45855;-69
2022/05/08 01:32:16;;;;;;;;;25.50;22.00;;;;;15.34;66.47;102141.88;5037112;28;45477;-69
2022/05/08 01:34:41;;;;;;;;;17.25;15.25;;;;;15.37;66.49;102140.75;5032077;28;45478;-69
2022/05/08 01:37:07;;;;;;;;;22.50;20.75;;;;;15.38;66.09;102137.00;5038770;28;45281;-69
2022/05/08 01:39:32;;;;;;;;;20.33;16.67;;;;;15.31;66.53;102136.72;5032178;28;45244;-70
2022/05/08 01:41:58;;;;;;;;;21.00;20.25;;;;;15.34;66.42;102133.66;5020295;28;45323;-69
2022/05/08 01:44:24;;;;;;;;;24.25;18.75;;;;;15.31;66.78;102153.16;5030947;28;45479;-69
2022/05/08 01:48:21;;;;;;;;;17.50;15.25;;;;;15.36;66.22;102152.69;5020313;28;45922;-70
2022/05/08 01:49:35;;;;;;;;;26.67;23.67;;;;;15.34;66.30;102146.53;5028881;28;45375;-69
2022/05/08 01:52:00;;;;;;;;;25.67;23.00;;;;;15.34;65.90;102139.16;5035530;28;45408;-69
2022/05/08 01:54:26;;;;;;;;;25.00;24.25;;;;;15.33;66.85;102144.78;5028827;28;46579;-69
2022/05/08 01:56:51;;;;;;;;;29.25;24.25;;;;;15.15;67.40;102131.81;5033028;28;45573;-69
2022/05/08 01:59:16;;;;;;;;;22.33;19.33;;;;;15.17;67.49;102153.59;5040452;28;45483;-69
2022/05/08 02:01:43;;;;;;;;;28.75;28.75;;;;;15.03;68.01;102145.81;5021169;28;45311;-71
2022/05/08 02:04:15;;;;;;;;;31.75;25.00;;;;;15.01;67.63;102145.94;5041724;28;45496;-69
2022/05/08 02:06:43;;;;;;;;;28.00;23.25;;;;;14.96;68.08;102150.13;5016683;28;45458;-69
2022/05/08 02:09:09;;;;;;;;;33.25;30.25;;;;;15.01;68.17;102145.94;5025233;28;45421;-69
2022/05/08 02:11:34;;;;;;;;;28.75;26.25;;;;;14.99;67.98;102144.34;5036645;28;45307;-69
2022/05/08 02:14:01;;;;;;;;;24.67;18.33;;;;;14.92;68.36;102145.94;5024647;28;46170;-69
2022/05/08 02:16:26;;;;;;;;;34.75;29.50;;;;;14.84;68.00;102148.50;5014758;28;45332;-69
2022/05/08 02:18:52;;;;;;;;;32.50;28.50;;;;;14.71;69.10;102140.56;5024840;28;45427;-69
2022/05/08 02:21:17;;;;;;;;;24.50;24.50;;;;;14.73;69.07;102150.38;5033772;28;45369;-69
2022/05/08 02:23:43;;;;;;;;;30.00;23.75;;;;;14.75;68.71;102151.13;5026265;28;45449;-69
2022/05/08 02:26:08;;;;;;;;;26.50;26.00;;;;;14.75;69.06;102147.50;5031519;28;45321;-69
2022/05/08 02:28:34;;;;;;;;;27.00;24.75;;;;;14.82;68.65;102158.75;5039657;28;45562;-69
2022/05/08 02:30:59;;;;;;;;;21.25;18.25;;;;;14.82;68.16;102158.75;5030593;28;45402;-69
2022/05/08 02:33:25;;;;;;;;;27.75;20.25;;;;;14.74;68.95;102157.59;5039658;28;47595;-69
2022/05/08 02:35:50;;;;;;;;;26.25;23.25;;;;;14.55;69.55;102154.78;5016896;28;45478;-70
2022/05/08 02:38:16;;;;;;;;;31.25;26.75;;;;;14.46;70.08;102152.91;5036016;28;46212;-69
2022/05/08 02:40:41;;;;;;;;;34.50;30.50;;;;;14.37;70.86;102164.66;5011621;28;45586;-68
2022/05/08 02:43:06;;;;;;;;;34.00;27.50;;;;;14.20;71.18;102162.56;5034411;28;45471;-68
2022/05/08 02:45:31;;;;;;;;;33.50;26.50;;;;;14.19;71.63;102158.94;5028109;28;45379;-68
2022/05/08 02:47:57;;;;;;;;;36.75;35.00;;;;;14.09;71.85;102157.19;5037494;28;45503;-68
2022/05/08 02:50:23;;;;;;;;;36.75;33.00;;;;;14.12;72.05;102165.97;5031084;28;45473;-68
2022/05/08 02:52:49;;;;;;;;;34.00;31.00;;;;;14.16;71.95;102169.31;5032557;28;45498;-68
2022/05/08 03:00:45;;;;;;;;;38.75;34.00;;;;;14.20;71.81;102174.34;5028397;28;45517;-70
2022/05/08 03:03:11;;;;;;;;;41.50;35.50;;;;;14.07;72.53;102172.84;5019251;28;45781;-70
2022/05/08 03:05:37;;;;;;;;;43.75;36.25;;;;;14.02;72.38;102163.22;5014598;28;45504;-70
2022/05/08 03:08:05;;;;;;;;;45.25;34.00;;;;;14.09;72.51;102170.88;5031624;28;45253;-70
2022/05/08 03:11:25;;;;;;;;;42.50;35.50;;;;;14.06;72.69;102169.25;5027809;28;45479;-69
2022/05/08 03:13:16;;;;;;;;;42.25;34.75;;;;;14.14;72.71;102177.66;5028928;28;45983;-70
2022/05/08 03:15:41;;;;;;;;;50.25;39.50;;;;;14.13;72.58;102173.16;5028376;28;45545;-70
2022/05/08 03:18:07;;;;;;;;;48.00;38.75;;;;;14.13;72.40;102178.63;5024913;28;45394;-69
2022/05/08 03:20:33;;;;;;;;;38.75;31.00;;;;;14.00;72.51;102178.88;5037648;28;45575;-70
2022/05/08 03:22:59;;;;;;;;;46.50;38.25;;;;;14.00;72.69;102180.75;5031755;28;46246;-69
2022/05/08 03:25:25;;;;;;;;;43.00;36.75;;;;;14.19;72.37;102183.56;5029682;28;45398;-69
2022/05/08 03:27:51;;;;;;;;;41.00;35.25;;;;;14.33;71.35;102176.84;5036762;28;45299;-70
2022/05/08 03:30:16;;;;;;;;;46.00;39.00;;;;;14.29;71.38;102178.13;5030109;28;45410;-70
2022/05/08 03:32:41;;;;;;;;;51.75;43.00;;;;;14.19;72.10;102182.69;5034349;28;45924;-70
2022/05/08 03:35:07;;;;;;;;;52.75;41.00;;;;;14.20;71.83;102168.88;5028442;28;45695;-70
2022/05/08 03:37:33;;;;;;;;;51.75;40.50;;;;;14.15;72.15;102164.84;5038947;28;45348;-69
2022/05/08 03:39:59;;;;;;;;;51.75;38.25;;;;;14.15;72.52;102173.03;5009935;28;45343;-69
2022/05/08 03:42:24;;;;;;;;;53.00;42.75;;;;;14.27;71.98;102174.66;5039964;28;45451;-69
2022/05/08 03:44:53;;;;;;;;;44.75;37.75;;;;;14.29;71.24;102175.41;5040177;28;45327;-69
2022/05/08 03:47:19;;;;;;;;;51.50;43.50;;;;;14.31;71.26;102178.88;5034480;28;45393;-69
2022/05/08 03:49:44;;;;;;;;;45.75;36.25;;;;;14.32;71.62;102177.84;5027206;28;45276;-70
2022/05/08 03:52:09;;;;;;;;;53.25;42.00;;;;;14.33;70.60;102180.44;5020238;28;46764;-69
2022/05/08 03:54:35;;;;;;;;;48.50;41.00;;;;;14.26;71.53;102176.53;5025941;28;45369;-69
2022/05/08 03:57:00;;;;;;;;;53.25;41.00;;;;;14.31;71.34;102171.53;5010259;28;45355;-69
2022/05/08 03:59:25;;;;;;;;;53.50;43.00;;;;;14.28;71.69;102179.13;5023300;28;45349;-69
2022/05/08 04:01:54;;;;;;;;;52.50;43.50;;;;;14.13;72.63;102180.50;5029508;28;46019;-70
2022/05/08 04:04:20;;;;;;;;;54.25;43.25;;;;;14.02;72.92;102190.53;5038773;28;45224;-69
2022/05/08 04:06:45;;;;;;;;;53.00;42.25;;;;;13.95;73.33;102193.94;5034474;28;45406;-70
2022/05/08 04:09:11;;;;;;;;;50.50;42.75;;;;;13.88;73.43;102188.13;5023886;28;45311;-69
2022/05/08 04:11:36;;;;;;;;;58.00;47.75;;;;;13.82;73.65;102179.63;5034912;28;45447;-70
2022/05/08 04:14:01;;;;;;;;;58.50;47.50;;;;;13.84;73.58;102192.16;5022944;28;45478;-69
2022/05/08 04:16:27;;;;;;;;;55.75;42.75;;;;;13.91;74.00;102185.16;5033947;28;45621;-69
2022/05/08 04:18:52;;;;;;;;;58.75;44.75;;;;;14.10;73.11;102200.75;5023282;28;45359;-69
2022/05/08 04:21:18;;;;;;;;;54.25;42.00;;;;;14.23;72.73;102189.63;5032334;28;46295;-70
2022/05/08 04:26:30;;;;;;;;;61.50;45.75;;;;;13.96;73.14;102198.38;5030976;28;45504;-69
2022/05/08 04:28:58;;;;;;;;;55.25;42.25;;;;;13.95;73.54;102211.19;5036509;28;45370;-70
2022/05/08 04:31:24;;;;;;;;;61.00;47.50;;;;;13.86;73.82;102197.50;5028033;28;46232;-70
2022/05/08 04:33:50;;;;;;;;;53.25;42.00;;;;;13.90;74.13;102199.81;5034631;28;45319;-70
2022/05/08 04:36:16;;;;;;;;;58.25;48.00;;;;;13.97;73.52;102197.38;5031455;28;45400;-70
2022/05/08 04:38:42;;;;;;;;;55.75;46.50;;;;;14.06;73.54;102193.00;5033881;28;45342;-70
2022/05/08 04:41:07;;;;;;;;;53.00;42.00;;;;;14.00;73.08;102189.81;5030251;28;45287;-70
2022/05/08 04:43:32;;;;;;;;;56.75;43.50;;;;;14.00;73.35;102194.41;5030527;28;45259;-70
2022/05/08 04:45:58;;;;;;;;;54.75;45.75;;;;;14.01;73.29;102199.75;5028003;28;45859;-70
2022/05/08 04:48:23;;;;;;;;;53.00;43.00;;;;;14.00;73.08;102198.00;5031789;28;45355;-70
2022/05/08 04:50:48;;;;;;;;;57.25;47.00;;;;;14.03;73.34;102207.78;5031134;28;47791;-70
2022/05/08 04:53:14;;;;;;;;;61.25;48.00;;;;;14.07;73.25;102205.66;5029959;28;45573;-70
2022/05/08 04:55:39;;;;;;;;;57.25;44.75;;;;;14.04;73.29;102215.84;5026763;28;45804;-70
2022/05/08 04:58:04;;;;;;;;;59.50;48.00;;;;;14.10;72.97;102208.13;5028957;28;45462;-69
2022/05/08 05:00:30;;;;;;;;;52.50;43.00;;;;;14.12;72.75;102214.31;5025259;28;46264;-70
2022/05/08 05:02:55;;;;;;;;;55.00;43.50;;;;;14.25;72.81;102217.66;5033966;28;45391;-70
2022/05/08 05:05:21;;;;;;;;;51.25;41.00;;;;;14.15;72.55;102214.91;5031397;28;45455;-69
2022/05/08 05:07:46;;;;;;;;;64.00;47.75;;;;;14.18;72.41;102213.75;5031547;28;45291;-69
2022/05/08 05:10:13;;;;;;;;;57.75;43.75;;;;;14.24;72.35;102229.63;5024734;28;45446;-69
2022/05/08 05:12:39;;;;;;;;;60.25;45.00;;;;;14.14;72.79;102235.03;5021077;28;45398;-69
2022/05/08 05:15:06;;;;;;;;;57.75;44.50;;;;;14.25;72.48;102231.34;5039275;28;45409;-69
2022/05/08 05:17:32;;;;;;;;;53.75;42.00;;;;;14.44;71.79;102227.88;5031436;28;45339;-69
2022/05/08 05:19:57;;;;;;;;;59.00;46.75;;;;;14.31;71.95;102231.69;5024340;28;46196;-69
2022/05/08 05:22:23;;;;;;;;;57.50;45.25;;;;;14.29;72.46;102239.16;5016732;28;45399;-69
2022/05/08 05:24:49;;;;;;;;;62.50;46.25;;;;;14.33;72.15;102237.88;5005574;28;45366;-70
2022/05/08 05:27:15;;;;;;;;;61.25;43.75;;;;;14.46;71.32;102234.97;5034751;28;45413;-70
2022/05/08 05:29:40;;;;;;;;;58.50;47.00;;;;;14.48;71.11;102243.88;5029177;28;46013;-70
2022/05/08 05:32:06;;;;;;;;;63.50;46.25;;;;;14.58;70.94;102238.44;5030977;28;45324;-70
2022/05/08 05:34:31;;;;;;;;;63.75;49.00;;;;;14.53;70.95;102235.28;5029327;28;45315;-70
2022/05/08 05:36:57;;;;;;;;;59.00;47.25;;;;;14.54;71.62;102237.84;5020623;28;45693;-70
2022/05/08 05:39:24;;;;;;;;;51.25;41.25;;;;;14.46;71.82;102251.38;5029038;28;46489;-70
2022/05/08 05:41:50;;;;;;;;;58.75;43.50;;;;;14.30;71.77;102259.16;5028794;28;45393;-70
2022/05/08 05:44:15;;;;;;;;;60.50;46.75;;;;;14.23;72.31;102260.69;5028776;28;45308;-70
2022/05/08 05:49:27;;;;;;;;;65.75;49.25;;;;;14.26;71.97;102260.41;5026320;28;45495;-70
2022/05/08 05:51:57;;;;;;;;;53.75;44.25;;;;;14.08;72.60;102256.59;5011367;28;45339;-70
2022/05/08 05:54:24;;;;;;;;;60.25;45.25;;;;;14.07;72.45;102260.31;5006726;28;45330;-70
2022/05/08 05:56:49;;;;;;;;;60.00;45.75;;;;;14.03;73.18;102263.31;5030581;28;45449;-70
2022/05/08 05:59:15;;;;;;;;;50.50;42.25;;;;;14.03;73.22;102276.97;5028081;28;46369;-71
2022/05/08 06:01:41;;;;;;;;;53.00;43.25;;;;;14.08;72.82;102272.97;5027864;28;45340;-69
2022/05/08 06:04:06;;;;;;;;;61.50;46.00;;;;;14.02;72.99;102272.53;5041293;28;45528;-70
2022/05/08 06:06:31;;;;;;;;;63.75;45.50;;;;;14.11;72.96;102275.44;5036179;28;45334;-70
2022/05/08 06:08:57;;;;;;;;;60.25;46.50;;;;;14.12;73.15;102275.31;5024750;28;45626;-70
2022/05/08 06:11:22;;;;;;;;;53.75;43.50;;;;;14.13;72.72;102277.03;5034960;28;45350;-70
2022/05/08 06:13:47;;;;;;;;;44.25;35.75;;;;;14.25;72.17;102273.22;5026042;28;45366;-70
2022/05/08 06:16:13;;;;;;;;;57.25;45.50;;;;;14.32;72.06;102279.00;5033917;28;45470;-70
2022/05/08 06:18:38;;;;;;;;;51.25;41.25;;;;;14.37;71.64;102276.75;5027481;28;45702;-70
2022/05/08 06:21:03;;;;;;;;;53.00;43.50;;;;;14.37;71.43;102276.75;5032063;28;45367;-69
2022/05/08 06:23:29;;;;;;;;;59.00;42.50;;;;;14.32;71.91;102281.75;5028948;28;45332;-70
2022/05/08 06:25:54;;;;;;;;;52.75;40.75;;;;;14.24;72.32;102285.19;5031439;28;45506;-71
2022/05/08 06:28:19;;;;;;;;;52.50;42.50;;;;;14.18;72.22;102285.69;5039268;28;46595;-71
2022/05/08 06:30:48;;;;;;;;;50.50;41.50;;;;;14.28;72.86;102285.75;5029432;28;45575;-70
2022/05/08 06:33:14;;;;;;;;;54.75;42.00;;;;;14.21;71.82;102292.75;5036255;28;45460;-70
2022/05/08 06:35:39;;;;;;;;;48.50;39.00;;;;;14.31;71.92;102285.50;5028647;28;45649;-70
2022/05/08 06:38:06;;;;;;;;;51.50;42.25;;;;;14.40;72.14;102290.16;5037942;28;45380;-70
2022/05/08 06:40:32;;;;;;;;;54.25;42.50;;;;;14.46;71.22;102286.91;5026646;28;45299;-70
2022/05/08 06:42:57;;;;;;;;;54.75;43.25;;;;;14.62;71.31;102284.53;5020534;28;45362;-70
2022/05/08 06:45:24;;;;;;;;;44.75;35.25;;;;;14.64;70.88;102282.53;5026943;28;45434;-70
2022/05/08 06:47:50;;;;;;;;;53.75;44.75;;;;;14.71;70.96;102277.38;5013445;28;47299;-70
2022/05/08 06:50:17;;;;;;;;;54.25;43.00;;;;;14.87;70.30;102283.19;5025486;28;45316;-68
2022/05/08 06:52:43;;;;;;;;;49.00;40.00;;;;;15.03;69.58;102280.78;5034208;28;45510;-70
2022/05/08 06:55:08;;;;;;;;;54.25;41.50;;;;;15.11;69.50;102280.09;5007074;28;45326;-68
2022/05/08 06:57:34;;;;;;;;;53.75;40.75;;;;;15.19;69.76;102294.78;5031872;28;46568;-68
2022/05/08 07:02:43;;;;;;;;;55.25;42.50;;;;;14.91;69.57;102290.09;5034829;28;45200;-70
2022/05/08 07:05:09;;;;;;;;;55.00;42.00;;;;;15.03;69.31;102289.00;5035539;28;45447;-70
2022/05/08 07:07:34;;;;;;;;;52.00;42.25;;;;;15.19;69.06;102294.78;5031591;28;47301;-70
2022/05/08 07:09:59;;;;;;;;;58.50;45.00;;;;;15.16;68.83;102307.91;5026394;28;46857;-70
2022/05/08 07:12:25;;;;;;;;;49.00;41.00;;;;;15.19;68.95;102305.72;5032496;28;45154;-71
2022/05/08 07:14:52;;;;;;;;;38.00;35.25;;;;;15.16;69.22;102307.91;5025345;28;45400;-70
2022/05/08 07:17:17;;;;;;;;;50.25;40.00;;;;;15.14;69.09;102301.69;5032860;28;45481;-70
2022/05/08 07:19:43;;;;;;;;;46.75;37.00;;;;;14.97;69.44;102295.03;5023980;28;45355;-69
2022/05/08 07:22:08;;;;;;;;;50.50;40.75;;;;;14.93;70.05;102307.25;5034641;28;45494;-70
2022/05/08 07:24:33;;;;;;;;;49.00;37.75;;;;;15.00;70.34;102304.81;5006667;28;45353;-68
2022/05/08 07:26:59;;;;;;;;;54.75;41.50;;;;;15.10;69.69;102311.22;5033372;28;46489;-68
2022/05/08 07:29:24;;;;;;;;;49.25;38.25;;;;;15.16;69.25;102316.97;5025471;28;45504;-68
2022/05/08 07:31:49;;;;;;;;;58.00;44.75;;;;;15.11;69.39;102315.69;5034413;28;45510;-70
2022/05/08 07:36:59;;;;;;;;;54.50;43.50;;;;;15.13;68.96;102319.13;5032776;28;45474;-70
2022/05/08 07:39:24;;;;;;;;;50.00;39.50;;;;;15.16;69.26;102316.13;5005142;28;45419;-70
2022/05/08 07:41:49;;;;;;;;;51.75;43.75;;;;;15.14;69.30;102312.66;5013939;28;45917;-70
2022/05/08 07:44:15;;;;;;;;;52.25;43.50;;;;;15.21;69.57;102319.28;5012694;28;45604;-70
2022/05/08 07:46:40;;;;;;;;;53.25;43.75;;;;;15.39;68.79;102324.97;5029347;28;45506;-70
2022/05/08 07:49:05;;;;;;;;;56.00;42.25;;;;;15.34;68.70;102319.06;5029912;28;45159;-68
2022/05/08 07:51:31;;;;;;;;;49.25;37.75;;;;;15.26;69.29;102327.09;5027061;28;45371;-68
2022/05/08 07:53:58;;;;;;;;;46.25;37.75;;;;;15.31;68.85;102328.41;5029907;28;45371;-68
2022/05/08 07:56:23;;;;;;;;;53.25;43.00;;;;;15.35;68.55;102332.56;5028346;28;45507;-68
2022/05/08 07:58:49;;;;;;;;;51.75;42.75;;;;;15.41;68.34;102328.44;5009625;28;45425;-68
2022/05/08 08:01:14;;;;;;;;;48.25;39.00;;;;;15.62;68.16;102325.59;5031517;28;45796;-68
2022/05/08 08:03:41;;;;;;;;;55.00;42.00;;;;;15.74;68.02;102332.66;5038866;28;45236;-69
2022/05/08 08:06:06;;;;;;;;;53.25;40.75;;;;;15.96;67.35;102337.88;5009573;28;47867;-68
2022/05/08 08:08:32;;;;;;;;;58.00;46.00;;;;;15.82;66.82;102330.94;5023143;28;45386;-68
2022/05/08 08:11:01;;;;;;;;;43.00;33.75;;;;;15.79;67.24;102344.06;5028771;28;45461;-68
2022/05/08 08:13:29;;;;;;;;;47.50;37.25;;;;;15.83;66.91;102335.44;5023014;28;45520;-70
2022/05/08 08:15:54;;;;;;;;;58.25;45.75;;;;;15.98;66.70;102335.84;5036462;28;46636;-68
2022/05/08 08:18:19;;;;;;;;;54.75;41.00;;;;;16.10;66.21;102334.69;5028265;28;45234;-69
2022/05/08 08:20:46;;;;;;;;;55.50;43.25;;;;;16.33;65.10;102340.72;5009444;28;45305;-69
2022/05/08 08:23:12;;;;;;;;;48.75;36.75;;;;;16.24;65.04;102336.97;5023325;28;45328;-69
2022/05/08 08:25:37;;;;;;;;;46.00;38.25;;;;;16.09;65.63;102343.03;5028124;28;45457;-69
2022/05/08 08:28:03;;;;;;;;;57.25;44.50;;;;;16.05;65.69;102330.66;5019087;28;45422;-69
2022/05/08 08:30:29;;;;;;;;;49.50;41.25;;;;;16.23;65.62;102329.75;5037286;28;45414;-69
2022/05/08 08:32:54;;;;;;;;;50.50;40.50;;;;;16.14;65.88;102341.63;5040212;28;45588;-69
2022/05/08 08:35:20;;;;;;;;;49.50;39.50;;;;;16.28;65.24;102332.06;5006516;28;47532;-69
2022/05/08 08:37:45;;;;;;;;;56.00;42.00;;;;;16.24;64.63;102331.47;5037128;28;45321;-69
2022/05/08 08:40:11;;;;;;;;;48.50;39.25;;;;;16.32;64.64;102331.63;5025160;28;45339;-68
2022/05/08 08:42:41;;;;;;;;;56.75;44.25;;;;;16.38;64.17;102332.03;5034747;28;45449;-69
2022/05/08 08:48:02;;;;;;;;;48.50;40.00;;;;;16.55;63.54;102331.28;5031808;28;45327;-69
2022/05/08 08:50:28;;;;;;;;;58.00;45.25;;;;;16.60;64.67;102339.91;5025168;28;45513;-69
2022/05/08 08:52:56;;;;;;;;;52.75;42.00;;;;;16.72;64.00;102336.03;5040991;28;45334;-69
2022/05/08 08:55:22;;;;;;;;;47.25;36.50;;;;;16.92;63.66;102328.56;5037478;28;46434;-69
2022/05/08 08:57:48;;;;;;;;;57.00;44.75;;;;;16.82;63.71;102335.97;5027250;28;45350;-69
2022/05/08 09:00:14;;;;;;;;;55.75;41.50;;;;;16.97;63.58;102339.97;5025068;28;45324;-69
2022/05/08 09:02:40;;;;;;;;;48.25;36.50;;;;;16.83;63.33;102340.44;5035950;28;45201;-69
2022/05/08 09:05:07;;;;;;;;;50.75;39.75;;;;;16.83;63.34;102330.34;5032985;28;46282;-69
2022/05/08 09:07:39;;;;;;;;;52.75;43.25;;;;;16.95;63.13;102342.00;5031177;28;45467;-69
2022/05/08 09:10:23;;;;;;;;;51.00;43.50;;;;;16.93;63.30;102333.91;5023190;28;46019;-69
2022/05/08 09:12:52;;;;;;;;;52.75;43.00;;;;;17.04;62.74;102322.72;5023681;28;45391;-69
2022/05/08 09:15:22;;;;;;;;;55.00;41.25;;;;;16.97;63.01;102329.84;5005596;28;47976;-69
2022/05/08 09:17:51;;;;;;;;;40.75;34.75;;;;;16.99;62.84;102327.81;5030705;28;45319;-68
2022/05/08 09:20:41;;;;;;;;;55.25;45.00;;;;;17.36;61.89;102337.88;5026402;28;45681;-68
2022/05/08 09:23:14;;;;;;;;;47.75;39.00;;;;;17.49;61.58;102331.00;5023063;28;45245;-69
2022/05/08 09:25:45;;;;;;;;;55.00;42.25;;;;;17.67;61.22;102331.06;5027449;28;45300;-69
2022/05/08 09:28:12;;;;;;;;;55.25;45.00;;;;;17.61;61.13;102331.66;5036979;28;45356;-69
2022/05/08 09:30:59;;;;;;;;;55.50;43.25;;;;;17.57;61.16;102338.47;5007784;28;45489;-71
2022/05/08 09:33:26;;;;;;;;;51.75;43.25;;;;;17.62;60.56;102327.88;5037584;28;45383;-70
2022/05/08 09:35:52;;;;;;;;;59.00;46.00;;;;;17.61;61.58;102333.50;5030563;28;46122;-71
2022/05/08 09:38:17;;;;;;;;;60.25;43.25;;;;;17.65;60.98;102330.34;5039038;28;45266;-73
2022/05/08 09:40:45;;;;;;;;;48.00;37.25;;;;;17.58;60.97;102331.06;5011543;28;45405;-71
2022/05/08 09:43:28;;;;;;;;;52.25;40.25;;;;;17.46;60.91;102339.53;5039142;28;45411;-72
2022/05/08 09:45:59;;;;;;;;;53.75;42.75;;;;;17.40;61.57;102339.28;5030697;28;45429;-71
2022/05/08 09:48:29;;;;;;;;;55.75;45.75;;;;;17.47;61.12;102343.16;5016840;28;45461;-72
2022/05/08 09:51:00;;;;;;;;;54.75;43.00;;;;;17.58;61.00;102334.69;5030806;28;45340;-72
2022/05/08 09:53:27;;;;;;;;;54.00;43.25;;;;;17.55;60.45;102324.00;5023469;28;45395;-72
2022/05/08 09:55:54;;;;;;;;;47.00;39.50;;;;;17.69;60.54;102331.72;5038126;28;45429;-71
2022/05/08 09:58:20;;;;;;;;;54.25;43.50;;;;;17.93;60.15;102328.38;5013726;28;45349;-70
2022/05/08 10:00:47;;;;;;;;;50.00;41.25;;;;;17.95;59.77;102319.97;5028578;28;45312;-70
2022/05/08 10:03:14;;;;;;;;;54.50;44.00;;;;;17.96;60.27;102324.44;5020717;28;45462;-70
2022/05/08 10:05:42;;;;;;;;;53.75;43.25;;;;;18.34;59.91;102318.53;5032711;28;45280;-71
2022/05/08 10:08:09;;;;;;;;;57.75;44.75;;;;;18.33;58.44;102321.47;5032920;28;45662;-70
2022/05/08 10:13:57;;;;;;;;;53.50;44.25;;;;;18.46;58.06;102320.03;5031397;28;45265;-69
2022/05/08 10:16:51;;;;;;;;;53.25;40.50;;;;;19.02;57.17;102310.38;5034127;28;45480;-70
2022/05/08 10:19:16;;;;;;;;;55.75;44.25;;;;;19.15;55.61;102313.50;5032212;28;45296;-69
2022/05/08 10:22:03;;;;;;;;;53.25;45.00;;;;;19.27;55.51;102312.19;5015854;28;45366;-70
2022/05/08 10:24:47;;;;;;;;;49.25;38.75;;;;;19.26;56.11;102304.97;5027572;28;45380;-70
2022/05/08 10:27:18;;;;;;;;;49.00;39.50;;;;;19.45;55.01;102312.06;5015193;28;46735;-70
2022/05/08 10:29:50;;;;;;;;;53.50;42.75;;;;;19.68;54.42;102312.31;5025946;28;45512;-70
2022/05/08 10:32:33;;;;;;;;;54.00;42.00;;;;;20.04;53.42;102302.69;5034153;28;45350;-70
2022/05/08 10:35:22;;;;;;;;;51.00;41.50;;;;;20.54;53.07;102304.38;5030052;28;45422;-70
2022/05/08 10:38:03;;;;;;;;;50.50;40.00;;;;;20.78;52.31;102296.03;5025173;28;47698;-70
2022/05/08 10:40:28;;;;;;;;;52.75;43.50;;;;;21.11;51.13;102295.91;5042243;28;45405;-70
2022/05/08 10:42:59;;;;;;;;;49.25;38.50;;;;;21.62;50.45;102295.31;5039210;28;45299;-70
2022/05/08 10:45:33;;;;;;;;;50.75;38.50;;;;;21.44;48.90;102286.41;5028015;28;45808;-68
2022/05/08 10:48:05;;;;;;;;;46.00;38.50;;;;;21.79;49.53;102289.63;5016431;28;46884;-68
2022/05/08 10:50:30;;;;;;;;;53.75;43.25;;;;;21.84;48.35;102292.72;5036629;28;45559;-68
2022/05/08 10:52:58;;;;;;;;;46.75;38.00;;;;;22.04;48.84;102293.97;5036771;28;45457;-69
2022/05/08 10:55:24;;;;;;;;;55.50;42.00;;;;;21.91;48.74;102294.56;5039944;28;45446;-68
2022/05/08 10:57:51;;;;;;;;;52.50;41.25;;;;;21.60;48.40;102296.53;5033491;28;45452;-69
2022/05/08 11:00:17;;;;;;;;;54.00;40.50;;;;;21.75;48.83;102295.56;5039918;28;45421;-68
2022/05/08 11:03:01;;;;;;;;;31.25;26.25;;;;;22.14;48.05;102300.09;5038070;28;45305;-68
2022/05/08 11:05:28;;;;;;;;;45.25;39.25;;;;;21.61;47.86;102288.06;5036720;28;45386;-70
2022/05/08 11:08:10;;;;;;;;;51.00;39.75;;;;;21.51;48.52;102290.19;5040261;28;46672;-68
2022/05/08 11:10:40;;;;;;;;;51.00;38.75;;;;;21.74;48.52;102287.44;5034541;28;45471;-68
2022/05/08 11:13:12;;;;;;;;;47.00;38.75;;;;;22.34;48.15;102289.38;5021496;28;45673;-68
2022/05/08 11:15:40;;;;;;;;;51.75;41.50;;;;;22.29;47.00;102283.50;5034212;28;45362;-69
2022/05/08 11:18:09;;;;;;;;;52.75;43.00;;;;;22.12;47.12;102285.59;5041629;28;45640;-70
2022/05/08 11:20:43;;;;;;;;;48.50;40.25;;;;;22.18;46.43;102286.75;5037867;28;45532;-68
2022/05/08 11:23:14;;;;;;;;;48.25;39.50;;;;;21.73;47.24;102283.81;5038964;28;45406;-69
2022/05/08 11:25:44;;;;;;;;;51.00;40.75;;;;;22.31;47.03;102293.34;5038325;28;45536;-69
2022/05/08 11:28:16;;;;;;;;;48.25;38.75;;;;;22.16;47.17;102289.69;5007091;28;47435;-69
2022/05/08 11:30:43;;;;;;;;;47.25;38.75;;;;;22.23;46.35;102278.72;5035991;28;45539;-69
2022/05/08 11:36:04;;;;;;;;;36.75;33.00;;;;;23.01;44.82;102264.38;5037151;28;45497;-69